Time;durP1;ratioP1;P1;durP2;ratioP2;P2;SDS_P1;SDS_P2;PMS_P1;PMS_P2;Temp;Humidity;BMP_temperature;BMP_pressure;BME280_temperature;BME280_humidity;BME280_pressure;Samples;Min_cycle;Max_cycle;Signal;HPM_P1;HPM_P2
2023/02/18 00:00:16;;;;;;;54.05;31.42;;;180.10;2252.80;;;;;;5039076;28;20037;-62
2023/02/18 00:02:43;;;;;;;23.15;15.68;;;180.10;2252.80;;;;;;5039053;28;20434;-63
2023/02/18 00:05:09;;;;;;;60.08;37.35;;;180.00;2252.80;;;;;;5039148;28;20059;-64
2023/02/18 00:07:36;;;;;;;43.63;24.65;;;180.10;2252.80;;;;;;5039555;28;20613;-62
2023/02/18 00:10:05;;;;;;;30.55;16.92;;;180.10;2252.80;;;;;;5039852;28;20026;-63
2023/02/18 00:12:31;;;;;;;60.92;34.38;;;179.90;2252.80;;;;;;5038051;28;20035;-64
2023/02/18 00:14:57;;;;;;;56.10;30.83;;;179.80;2252.80;;;;;;5040462;28;20048;-63
2023/02/18 00:17:23;;;;;;;22.45;12.18;;;179.70;2252.80;;;;;;5038921;28;20071;-64
2023/02/18 00:19:49;;;;;;;24.52;14.60;;;179.60;2252.80;;;;;;5040542;28;20033;-63
2023/02/18 00:22:14;;;;;;;19.90;11.88;;;179.50;2252.80;;;;;;5038877;28;20471;-62
2023/02/18 00:24:40;;;;;;;24.25;11.70;;;179.40;2252.80;;;;;;5038927;28;20025;-64
2023/02/18 00:27:06;;;;;;;42.20;24.08;;;179.40;2252.80;;;;;;5040277;28;20029;-63
2023/02/18 00:29:32;;;;;;;57.55;32.28;;;179.40;2252.80;;;;;;5038533;28;20029;-63
2023/02/18 00:31:58;;;;;;;33.85;20.02;;;179.40;2252.80;;;;;;5034041;28;20026;-63
2023/02/18 00:34:23;;;;;;;18.85;11.55;;;179.50;2252.80;;;;;;5030669;28;20048;-63
2023/02/18 00:36:49;;;;;;;41.00;23.27;;;179.50;2252.80;;;;;;5033724;28;20057;-63
2023/02/18 00:39:15;;;;;;;30.23;18.50;;;179.50;2252.80;;;;;;5030592;28;20065;-63
2023/02/18 00:41:41;;;;;;;59.08;31.30;;;179.50;2252.80;;;;;;5030464;28;20033;-63
2023/02/18 00:44:07;;;;;;;48.97;26.02;;;179.70;2252.80;;;;;;5030483;28;20112;-63
2023/02/18 00:46:34;;;;;;;54.58;32.17;;;179.70;2252.80;;;;;;5030611;28;20056;-63
2023/02/18 00:49:00;;;;;;;58.05;33.63;;;179.70;2252.80;;;;;;5030585;28;20034;-64
2023/02/18 00:51:26;;;;;;;27.20;13.35;;;179.70;2252.80;;;;;;5030586;28;20028;-63
2023/02/18 00:53:52;;;;;;;76.65;44.58;;;179.70;2252.80;;;;;;5030637;28;20549;-63
2023/02/18 00:56:18;;;;;;;19.23;12.10;;;179.80;2252.80;;;;;;5030546;28;20080;-63
2023/02/18 00:58:44;;;;;;;40.92;22.27;;;179.90;2252.80;;;;;;5030520;28;20037;-63
2023/02/18 01:01:10;;;;;;;82.55;42.47;;;180.00;2252.80;;;;;;5030242;28;20037;-63
2023/02/18 01:03:37;;;;;;;159.32;79.90;;;180.10;2252.80;;;;;;5029920;28;20017;-64
2023/02/18 01:06:04;;;;;;;193.30;91.25;;;204.80;2252.80;;;;;;5030423;28;20084;-63
2023/02/18 01:08:30;;;;;;;177.73;86.88;;;180.10;2252.80;;;;;;5030376;28;20109;-64
2023/02/18 01:10:57;;;;;;;318.33;151.38;;;180.10;2252.80;;;;;;5030279;28;20130;-64
2023/02/18 01:13:24;;;;;;;389.05;180.10;;;180.00;2252.80;;;;;;5030413;28;20124;-64
2023/02/18 01:15:50;;;;;;;430.10;181.02;;;180.10;2252.80;;;;;;5030490;28;20022;-63
2023/02/18 01:18:16;;;;;;;99.25;40.38;;;179.90;2252.80;;;;;;5030583;28;20076;-65
2023/02/18 01:20:43;;;;;;;557.22;277.08;;;180.10;2252.80;;;;;;5030285;28;20025;-63
2023/02/18 01:23:10;;;;;;;164.32;61.63;;;180.10;2252.80;;;;;;5029858;28;20028;-63
2023/02/18 01:25:37;;;;;;;474.55;238.13;;;204.80;2252.80;;;;;;5030245;28;20539;-64
2023/02/18 01:28:04;;;;;;;187.02;88.32;;;180.00;2252.80;;;;;;5030362;28;20030;-63
2023/02/18 01:30:30;;;;;;;34.38;18.80;;;180.10;2252.80;;;;;;5030151;28;20071;-64
2023/02/18 01:32:56;;;;;;;165.75;82.57;;;180.10;2252.80;;;;;;5030194;28;20022;-64
2023/02/18 01:35:23;;;;;;;22.45;14.10;;;204.90;2252.80;;;;;;5030126;28;20030;-64
2023/02/18 01:37:49;;;;;;;40.72;24.02;;;204.90;2252.80;;;;;;5030228;28;20032;-63
2023/02/18 01:40:20;;;;;;;53.78;32.30;;;205.00;2252.80;;;;;;5030191;28;20488;-63
2023/02/18 01:42:48;;;;;;;123.95;71.25;;;205.00;2252.80;;;;;;5029915;28;20044;-65
2023/02/18 01:45:32;;;;;;;112.93;64.85;;;205.00;2252.80;;;;;;5030177;28;20118;-64
2023/02/18 01:48:19;;;;;;;75.63;44.67;;;205.10;2252.80;;;;;;5030063;28;20029;-64
2023/02/18 01:50:48;;;;;;;27.50;18.35;;;205.10;2252.80;;;;;;5030160;28;20538;-64
2023/02/18 01:53:19;;;;;;;18.02;11.82;;;205.00;2252.80;;;;;;5030172;28;20025;-63
2023/02/18 01:55:46;;;;;;;33.55;17.92;;;204.90;2252.80;;;;;;5030034;28;20024;-63
2023/02/18 01:58:13;;;;;;;131.75;69.57;;;204.90;2252.80;;;;;;5030028;28;20028;-63
2023/02/18 02:00:39;;;;;;;43.33;24.83;;;204.90;2252.80;;;;;;5029969;28;20037;-64
2023/02/18 02:03:05;;;;;;;110.03;50.00;;;205.00;2252.80;;;;;;5030117;28;20018;-64
2023/02/18 02:05:32;;;;;;;48.53;25.73;;;205.10;2252.80;;;;;;5029746;28;20352;-64
2023/02/18 02:08:00;;;;;;;24.40;12.23;;;205.30;2252.80;;;;;;5029804;28;20029;-63
2023/02/18 02:10:39;;;;;;;22.92;12.60;;;205.40;2252.80;;;;;;5029956;28;20526;-64
2023/02/18 02:13:28;;;;;;;100.05;47.15;;;205.50;2252.80;;;;;;5029787;28;20486;-64
2023/02/18 02:16:11;;;;;;;110.07;49.10;;;205.70;2252.80;;;;;;5032235;28;20029;-63
2023/02/18 02:19:09;;;;;;;102.13;51.70;;;205.60;2252.80;;;;;;5033213;28;20109;-64
2023/02/18 02:21:52;;;;;;;97.95;51.50;;;205.50;2252.80;;;;;;4953055;29;20564;-63
2023/02/18 02:24:52;;;;;;;30.50;15.65;;;205.50;2252.80;;;;;;4952838;29;20106;-64
2023/02/18 02:27:23;;;;;;;30.40;17.10;;;205.70;2252.80;;;;;;4952851;29;20167;-63
2023/02/18 02:30:08;;;;;;;54.65;30.02;;;205.70;2252.80;;;;;;4952742;29;20393;-63
2023/02/18 02:33:32;;;;;;;49.85;28.52;;;205.70;2252.80;;;;;;4952842;29;20028;-63
2023/02/18 02:36:04;;;;;;;49.63;28.30;;;205.70;2252.80;;;;;;4876794;29;20392;-63
2023/02/18 02:38:41;;;;;;;131.90;64.72;;;205.70;2252.80;;;;;;4876686;29;20029;-63
2023/02/18 02:41:18;;;;;;;108.13;54.40;;;205.70;2252.80;;;;;;4876885;29;20033;-63
2023/02/18 02:44:14;;;;;;;40.25;22.13;;;205.70;2252.80;;;;;;4884199;29;20051;-63
2023/02/18 02:46:44;;;;;;;38.90;24.58;;;205.70;2252.80;;;;;;4895267;29;20517;-63
2023/02/18 02:49:25;;;;;;;82.97;40.00;;;205.70;2252.80;;;;;;4895388;29;20039;-64
2023/02/18 02:51:58;;;;;;;55.92;31.75;;;205.70;2252.80;;;;;;4895450;29;20095;-63
2023/02/18 02:54:26;;;;;;;81.07;39.13;;;205.70;2252.80;;;;;;4895585;29;20032;-63
2023/02/18 02:57:17;;;;;;;93.15;47.03;;;230.40;2252.80;;;;;;4896107;29;20036;-63
2023/02/18 02:59:48;;;;;;;20.17;13.43;;;205.70;2252.80;;;;;;4914008;29;20036;-64
2023/02/18 03:02:41;;;;;;;286.48;126.57;;;205.70;2252.80;;;;;;4914225;29;20496;-63
2023/02/18 03:05:40;;;;;;;248.52;111.55;;;205.70;2252.80;;;;;;4913814;29;20396;-64
2023/02/18 03:08:25;;;;;;;173.93;84.15;;;205.70;2252.80;;;;;;4913922;29;20028;-63
2023/02/18 03:11:04;;;;;;;644.05;343.27;;;205.70;2252.80;;;;;;4964106;28;20452;-64
2023/02/18 03:13:45;;;;;;;738.38;417.15;;;230.40;2252.80;;;;;;4971210;28;20155;-63
2023/02/18 03:16:22;;;;;;;730.75;434.05;;;205.70;2252.80;;;;;;4970983;28;20502;-63
2023/02/18 03:19:11;;;;;;;171.93;82.45;;;230.40;2252.80;;;;;;4971250;28;20035;-63
2023/02/18 03:22:07;;;;;;;529.30;325.40;;;230.50;2227.20;;;;;;4970987;28;20037;-63
2023/02/18 03:24:37;;;;;;;34.67;22.23;;;230.50;2227.20;;;;;;5049935;28;20035;-63
2023/02/18 03:27:13;;;;;;;125.35;71.38;;;205.70;2252.80;;;;;;5051820;28;20104;-64
2023/02/18 03:29:40;;;;;;;23.77;14.57;;;230.40;2252.80;;;;;;5051630;28;20029;-63
2023/02/18 03:32:10;;;;;;;30.33;16.30;;;230.40;2252.80;;;;;;5051803;28;20100;-63
2023/02/18 03:34:40;;;;;;;19.63;11.05;;;230.40;2252.80;;;;;;5051835;28;20086;-63
2023/02/18 03:37:09;;;;;;;26.25;12.93;;;230.40;2252.80;;;;;;5051721;28;20021;-64
2023/02/18 03:39:36;;;;;;;125.85;71.75;;;230.40;2252.80;;;;;;5051671;28;20090;-64
2023/02/18 03:42:02;;;;;;;154.57;88.30;;;230.40;2252.80;;;;;;5051725;28;20028;-63
2023/02/18 03:44:30;;;;;;;70.03;40.85;;;230.40;2252.80;;;;;;5041365;28;20060;-63
2023/02/18 03:46:56;;;;;;;14.45;8.02;;;230.40;2252.80;;;;;;5031570;28;20030;-64
2023/02/18 03:49:21;;;;;;;78.70;46.30;;;230.40;2252.80;;;;;;5031561;28;20022;-63
2023/02/18 03:51:47;;;;;;;104.07;60.25;;;205.70;2252.80;;;;;;5031278;28;20033;-64
2023/02/18 03:54:13;;;;;;;118.82;67.07;;;230.40;2252.80;;;;;;5031645;28;20542;-64
2023/02/18 03:56:39;;;;;;;22.73;12.93;;;230.60;2252.80;;;;;;5031405;28;20021;-64
2023/02/18 03:59:06;;;;;;;35.90;20.30;;;230.60;2252.80;;;;;;5031430;28;20387;-63
2023/02/18 04:01:32;;;;;;;20.25;11.38;;;230.60;2252.80;;;;;;5031622;28;20467;-64
2023/02/18 04:03:57;;;;;;;14.00;8.93;;;230.60;2252.80;;;;;;5031014;28;20165;-63
2023/02/18 04:06:23;;;;;;;82.75;47.60;;;230.60;2252.80;;;;;;5031524;28;20021;-63
2023/02/18 04:08:49;;;;;;;66.95;35.85;;;230.60;2252.80;;;;;;5030925;28;20467;-64
2023/02/18 04:11:16;;;;;;;38.05;21.55;;;230.60;2252.80;;;;;;5030834;28;20720;-63
2023/02/18 04:13:42;;;;;;;86.15;47.30;;;230.60;2252.80;;;;;;5031302;28;20025;-64
2023/02/18 04:16:07;;;;;;;35.25;20.98;;;230.70;2252.80;;;;;;5031037;28;20384;-64
2023/02/18 04:18:33;;;;;;;16.48;9.80;;;230.90;2252.80;;;;;;5031069;28;20031;-64
2023/02/18 04:20:59;;;;;;;73.72;38.67;;;231.00;2227.20;;;;;;5030798;28;20029;-63
2023/02/18 04:23:25;;;;;;;15.50;10.45;;;231.00;2252.80;;;;;;5031348;28;20032;-64
2023/02/18 04:25:51;;;;;;;21.17;13.45;;;231.00;2252.80;;;;;;5031132;28;20037;-63
2023/02/18 04:28:17;;;;;;;17.73;10.90;;;231.00;2252.80;;;;;;5030790;28;20017;-65
2023/02/18 04:30:44;;;;;;;14.23;8.82;;;230.90;2252.80;;;;;;5031084;28;20079;-64
2023/02/18 04:33:09;;;;;;;94.95;60.38;;;230.90;2252.80;;;;;;5030666;28;20036;-64
2023/02/18 04:35:35;;;;;;;90.97;56.17;;;230.80;2252.80;;;;;;5030673;28;20029;-64
2023/02/18 04:38:02;;;;;;;73.72;42.35;;;230.90;2252.80;;;;;;5030051;28;20083;-63
2023/02/18 04:40:29;;;;;;;20.15;13.30;;;230.90;2252.80;;;;;;5030641;28;20060;-64
2023/02/18 04:42:56;;;;;;;28.35;18.15;;;230.80;2252.80;;;;;;5030899;28;20049;-63
2023/02/18 04:45:23;;;;;;;37.65;22.90;;;230.70;2252.80;;;;;;5030598;28;20049;-63
2023/02/18 04:47:48;;;;;;;18.10;12.75;;;230.60;2252.80;;;;;;5030463;28;20021;-65
2023/02/18 04:50:14;;;;;;;46.58;27.38;;;230.40;2252.80;;;;;;5030626;28;20100;-64
2023/02/18 04:52:40;;;;;;;29.30;18.05;;;230.60;2252.80;;;;;;5030462;28;20025;-64
2023/02/18 04:55:06;;;;;;;52.00;27.13;;;230.80;2201.60;;;;;;5030542;28;20380;-64
2023/02/18 04:57:31;;;;;;;36.92;20.98;;;231.00;2150.40;;;;;;5030818;28;20021;-64
2023/02/18 04:59:57;;;;;;;12.90;7.07;;;231.10;2150.40;;;;;;5030119;28;20502;-64
2023/02/18 05:02:23;;;;;;;34.03;18.63;;;230.90;2227.20;;;;;;5030499;28;20021;-64
2023/02/18 05:04:48;;;;;;;18.42;11.63;;;230.70;2227.20;;;;;;5030239;28;20025;-65
2023/02/18 05:07:14;;;;;;;19.20;11.10;;;230.70;2252.80;;;;;;5030633;28;20108;-64
2023/02/18 05:09:40;;;;;;;175.57;91.60;;;230.70;2227.20;;;;;;5030316;28;20395;-64
2023/02/18 05:12:06;;;;;;;52.90;23.85;;;230.90;2176.00;;;;;;5030184;28;20026;-65
2023/02/18 05:14:32;;;;;;;13.32;7.63;;;231.00;2201.60;;;;;;5030378;28;20112;-65
2023/02/18 05:16:58;;;;;;;11.07;6.95;;;231.00;2201.60;;;;;;5030255;28;20068;-65
2023/02/18 05:19:23;;;;;;;40.33;22.20;;;231.00;2201.60;;;;;;5030123;28;20037;-64
2023/02/18 05:21:49;;;;;;;437.65;236.70;;;231.00;2176.00;;;;;;5030076;28;20025;-64
2023/02/18 05:24:15;;;;;;;28.73;14.20;;;230.90;2176.00;;;;;;5030576;28;20030;-64
2023/02/18 05:26:41;;;;;;;431.30;219.23;;;230.90;2176.00;;;;;;5030331;28;20349;-64
2023/02/18 05:29:06;;;;;;;171.55;88.85;;;230.90;2201.60;;;;;;5030276;28;20025;-64
2023/02/18 05:31:32;;;;;;;174.07;88.05;;;230.80;2227.20;;;;;;5030400;28;20131;-64
2023/02/18 05:33:58;;;;;;;42.10;23.00;;;230.70;2227.20;;;;;;5043689;28;20041;-64
2023/02/18 05:36:24;;;;;;;28.70;17.10;;;230.70;2227.20;;;;;;5049013;28;20024;-64
2023/02/18 05:38:50;;;;;;;13.98;7.15;;;230.80;2227.20;;;;;;5049112;28;20040;-64
2023/02/18 05:41:16;;;;;;;24.40;12.38;;;230.90;2201.60;;;;;;5048839;28;20020;-65
2023/02/18 05:46:26;;;;;;;31.85;19.15;;;231.00;2176.00;;;;;;5048806;28;20048;-65
2023/02/18 05:48:51;;;;;;;28.98;16.73;;;231.10;2176.00;;;;;;5050548;28;20690;-63
2023/02/18 05:51:17;;;;;;;41.75;23.65;;;231.30;2150.40;;;;;;5052566;28;20029;-64
2023/02/18 05:53:43;;;;;;;60.58;31.30;;;256.00;2150.40;;;;;;5052722;28;20116;-67
2023/02/18 05:56:08;;;;;;;70.85;40.47;;;256.10;2150.40;;;;;;5052844;28;20021;-64
2023/02/18 05:58:34;;;;;;;144.27;82.43;;;256.30;2124.80;;;;;;5052857;28;20455;-64
2023/02/18 06:01:00;;;;;;;105.15;62.75;;;256.50;2099.20;;;;;;5052439;28;20231;-64
2023/02/18 06:03:25;;;;;;;71.85;41.35;;;256.60;2099.20;;;;;;5052365;28;20021;-65
2023/02/18 06:05:51;;;;;;;102.35;61.42;;;256.70;2099.20;;;;;;5052500;28;20102;-64
2023/02/18 06:08:20;;;;;;;42.97;27.60;;;256.80;2073.60;;;;;;5052096;28;20032;-63
2023/02/18 06:10:46;;;;;;;26.67;14.27;;;256.80;2048.00;;;;;;5052265;28;20349;-64
2023/02/18 06:13:12;;;;;;;24.23;15.02;;;256.90;2048.00;;;;;;5052442;28;20044;-64
2023/02/18 06:15:38;;;;;;;19.25;13.88;;;256.90;2048.00;;;;;;5052178;28;20052;-64
2023/02/18 06:18:05;;;;;;;66.43;45.35;;;281.60;2048.00;;;;;;5052231;28;20031;-63
2023/02/18 06:20:30;;;;;;;87.80;72.10;;;256.40;2124.80;;;;;;5052004;28;20148;-63
2023/02/18 06:22:56;;;;;;;76.28;51.80;;;256.70;2099.20;;;;;;5052514;28;20057;-65
2023/02/18 06:25:22;;;;;;;72.57;53.72;;;256.90;2048.00;;;;;;5053136;28;20025;-65
2023/02/18 06:27:48;;;;;;;81.75;54.05;;;256.50;2099.20;;;;;;5053612;28;20017;-64
2023/02/18 06:30:13;;;;;;;234.77;158.05;;;230.80;2252.80;;;;;;5055802;28;20032;-65
2023/02/18 06:32:39;;;;;;;115.85;81.07;;;230.40;2252.80;;;;;;5056068;28;20097;-65
2023/02/18 06:35:05;;;;;;;112.82;80.78;;;230.80;2252.80;;;;;;5056463;28;20054;-64
2023/02/18 06:37:31;;;;;;;198.88;131.55;;;230.90;2252.80;;;;;;5056197;28;20040;-64
2023/02/18 06:39:57;;;;;;;136.20;84.18;;;230.80;2252.80;;;;;;5053834;28;20086;-65
2023/02/18 06:42:23;;;;;;;141.27;88.47;;;231.00;2252.80;;;;;;5052249;28;20021;-65
2023/02/18 06:44:48;;;;;;;106.07;75.75;;;231.30;2227.20;;;;;;5051911;28;20060;-63
2023/02/18 06:47:14;;;;;;;111.18;73.40;;;231.10;2252.80;;;;;;5052134;28;20028;-64
2023/02/18 06:49:40;;;;;;;109.15;79.10;;;231.20;2252.80;;;;;;5051808;28;20075;-64
2023/02/18 06:52:06;;;;;;;280.10;193.95;;;256.10;2252.80;;;;;;5051788;28;20387;-65
2023/02/18 06:54:33;;;;;;;115.45;79.32;;;256.20;2252.80;;;;;;5051992;28;20048;-64
2023/02/18 06:56:58;;;;;;;184.70;128.40;;;256.40;2252.80;;;;;;5051820;28;20029;-64
2023/02/18 06:59:24;;;;;;;258.35;179.00;;;256.70;2176.00;;;;;;5051671;28;20036;-64
2023/02/18 07:01:50;;;;;;;214.13;148.15;;;256.30;2252.80;;;;;;5050590;28;20032;-64
2023/02/18 07:04:15;;;;;;;274.27;192.32;;;256.40;2252.80;;;;;;5051339;28;20025;-64
2023/02/18 07:06:41;;;;;;;164.27;114.93;;;256.60;2252.80;;;;;;5051254;28;20042;-65
2023/02/18 07:09:07;;;;;;;291.75;170.30;;;256.90;2227.20;;;;;;5051426;28;20029;-65
2023/02/18 07:11:33;;;;;;;156.68;113.60;;;281.70;2227.20;;;;;;5051195;28;20361;-64
2023/02/18 07:13:58;;;;;;;157.88;111.18;;;281.70;2227.20;;;;;;5051100;28;20041;-65
2023/02/18 07:16:24;;;;;;;154.43;99.68;;;256.70;2227.20;;;;;;5051431;28;20087;-64
2023/02/18 07:18:50;;;;;;;174.05;120.53;;;256.90;2201.60;;;;;;5050974;28;20025;-64
2023/02/18 07:21:15;;;;;;;168.30;118.60;;;281.70;2227.20;;;;;;5050919;28;20112;-65
2023/02/18 07:23:41;;;;;;;257.27;177.20;;;281.90;2252.80;;;;;;5051050;28;20095;-64
2023/02/18 07:26:09;;;;;;;178.88;113.82;;;282.00;2252.80;;;;;;5050886;28;20568;-63
2023/02/18 07:28:35;;;;;;;278.48;180.48;;;281.80;2252.80;;;;;;5051187;28;20017;-66
2023/02/18 07:31:01;;;;;;;113.97;79.25;;;282.00;2201.60;;;;;;5049886;28;20039;-62
2023/02/18 07:33:27;;;;;;;139.98;94.78;;;282.00;2227.20;;;;;;5047888;28;20025;-63
2023/02/18 07:35:58;;;;;;;120.75;84.43;;;256.90;2227.20;;;;;;5050970;28;20048;-70
2023/02/18 07:38:25;;;;;;;131.73;97.55;;;256.70;2201.60;;;;;;5051335;28;20486;-67
2023/02/18 07:40:51;;;;;;;123.15;90.00;;;281.70;2227.20;;;;;;5043199;28;20490;-65
2023/02/18 07:43:17;;;;;;;148.98;100.80;;;282.00;2176.00;;;;;;5041801;28;20074;-68
2023/02/18 07:45:42;;;;;;;195.43;129.73;;;282.20;2176.00;;;;;;5040404;28;20052;-63
2023/02/18 07:48:08;;;;;;;120.65;88.43;;;282.50;2150.40;;;;;;5048681;28;20029;-69
2023/02/18 07:50:35;;;;;;;130.80;89.55;;;307.50;2124.80;;;;;;5033669;28;20040;-67
2023/02/18 07:53:03;;;;;;;128.25;87.95;;;308.00;2073.60;;;;;;5030987;28;20033;-63
2023/02/18 07:55:47;;;;;;;184.00;136.27;;;332.90;2073.60;;;;;;5032671;28;20029;-67
2023/02/18 07:58:18;;;;;;;339.73;259.92;;;333.00;2099.20;;;;;;5031485;28;20030;-70
2023/02/18 08:00:46;;;;;;;327.17;246.65;;;358.80;1971.20;;;;;;5031332;28;20396;-64
2023/02/18 08:03:13;;;;;;;350.35;270.95;;;409.70;1868.80;;;;;;5031300;28;20026;-72
2023/02/18 08:05:39;;;;;;;301.38;224.40;;;435.50;1715.20;;;;;;5030926;28;20041;-72
2023/02/18 08:08:05;;;;;;;151.90;123.72;;;436.10;1664.00;;;;;;5031129;28;20028;-67
2023/02/18 08:10:31;;;;;;;123.35;101.57;;;461.10;1612.80;;;;;;5039482;28;20037;-70
2023/02/18 08:12:56;;;;;;;156.25;129.02;;;461.20;1587.20;;;;;;5035674;28;20055;-68
2023/02/18 08:15:22;;;;;;;146.13;114.63;;;461.40;1561.60;;;;;;5040359;28;20037;-68
2023/02/18 08:17:48;;;;;;;154.50;118.35;;;512.10;1510.40;;;;;;5045049;28;20029;-67
2023/02/18 08:20:14;;;;;;;125.68;102.82;;;538.50;1408.00;;;;;;5050747;28;20106;-69
2023/02/18 08:22:39;;;;;;;145.23;106.07;;;538.20;1382.40;;;;;;5050651;28;20021;-66
2023/02/18 08:25:05;;;;;;;138.60;110.35;;;512.90;1382.40;;;;;;5050986;28;20021;-69
2023/02/18 08:27:31;;;;;;;110.32;88.47;;;487.10;1459.20;;;;;;5047209;28;20075;-70
2023/02/18 08:29:57;;;;;;;119.88;96.28;;;487.00;1459.20;;;;;;5038821;28;20037;-68
2023/02/18 08:32:27;;;;;;;135.23;106.35;;;487.10;1459.20;;;;;;5044606;28;20391;-68
2023/02/18 08:34:53;;;;;;;166.35;137.50;;;537.90;1408.00;;;;;;5050556;28;20031;-66
2023/02/18 08:37:18;;;;;;;156.15;131.75;;;538.50;1408.00;;;;;;5050789;28;20112;-68
2023/02/18 08:39:44;;;;;;;146.40;127.07;;;589.20;1356.80;;;;;;5049939;28;20483;-69
2023/02/18 08:42:10;;;;;;;125.38;111.57;;;614.90;1280.00;;;;;;5039651;28;20025;-67
2023/02/18 08:44:35;;;;;;;79.28;70.25;;;665.70;1203.20;;;;;;5045878;28;20175;-70
2023/02/18 08:47:01;;;;;;;94.97;84.57;;;691.20;1152.00;;;;;;5050693;28;20112;-69
2023/02/18 08:49:27;;;;;;;101.40;90.10;;;691.50;1126.40;;;;;;5050495;28;20096;-69
2023/02/18 08:51:52;;;;;;;94.10;83.93;;;691.80;1100.80;;;;;;5050575;28;20021;-68
2023/02/18 08:54:18;;;;;;;61.83;51.65;;;717.00;1100.80;;;;;;5050339;28;20028;-67
2023/02/18 08:56:44;;;;;;;78.05;59.20;;;691.60;1075.20;;;;;;5050527;28;20040;-65
2023/02/18 08:59:10;;;;;;;99.20;72.38;;;666.10;1126.40;;;;;;5050400;28;20060;-66
2023/02/18 09:01:35;;;;;;;60.08;49.72;;;640.70;1126.40;;;;;;5050318;28;20066;-64
2023/02/18 09:04:01;;;;;;;71.93;63.25;;;666.10;1126.40;;;;;;5038912;28;20037;-67
2023/02/18 09:06:27;;;;;;;63.97;47.78;;;717.10;1075.20;;;;;;5030290;28;20025;-66
2023/02/18 09:08:53;;;;;;;101.20;78.43;;;665.80;1100.80;;;;;;5030500;28;20028;-68
2023/02/18 09:11:19;;;;;;;107.43;89.88;;;640.60;1100.80;;;;;;5030321;28;20040;-64
2023/02/18 09:13:45;;;;;;;79.72;68.18;;;614.60;1177.60;;;;;;5030465;28;20022;-67
2023/02/18 09:16:14;;;;;;;51.50;41.75;;;589.70;1203.20;;;;;;5030567;28;20476;-65
2023/02/18 09:18:40;;;;;;;83.68;70.85;;;589.30;1203.20;;;;;;5030082;28;20388;-67
2023/02/18 09:21:08;;;;;;;127.05;106.20;;;615.20;1177.60;;;;;;5029919;28;20151;-64
2023/02/18 09:23:34;;;;;;;122.38;109.28;;;665.80;1152.00;;;;;;5031470;28;20022;-66
2023/02/18 09:26:04;;;;;;;146.63;130.70;;;665.80;1152.00;;;;;;5034136;28;20025;-66
2023/02/18 09:28:30;;;;;;;118.97;106.32;;;640.40;1177.60;;;;;;5034320;28;20021;-63
2023/02/18 09:30:55;;;;;;;90.13;79.65;;;614.90;1203.20;;;;;;5034418;28;20448;-66
2023/02/18 09:33:21;;;;;;;83.57;72.28;;;614.40;1228.80;;;;;;5034335;28;20036;-65
2023/02/18 09:35:47;;;;;;;82.95;70.35;;;563.90;1305.60;;;;;;5041111;28;20475;-67
2023/02/18 09:38:15;;;;;;;83.80;65.20;;;538.20;1331.20;;;;;;5044610;28;20097;-63
2023/02/18 09:40:45;;;;;;;89.10;71.72;;;537.80;1331.20;;;;;;5041013;28;20507;-67
2023/02/18 09:43:31;;;;;;;72.50;57.80;;;512.70;1356.80;;;;;;5040826;28;20040;-67
2023/02/18 09:45:58;;;;;;;70.63;52.22;;;486.80;1459.20;;;;;;5041994;28;20627;-66
2023/02/18 09:48:27;;;;;;;66.22;51.63;;;461.70;1484.80;;;;;;5045241;28;20075;-66
2023/02/18 09:50:54;;;;;;;68.15;47.72;;;486.40;1510.40;;;;;;5054122;28;20360;-66
2023/02/18 09:53:21;;;;;;;58.90;47.75;;;461.20;1561.60;;;;;;5053578;28;20523;-67
2023/02/18 09:55:48;;;;;;;83.45;53.58;;;461.20;1561.60;;;;;;5053633;28;20028;-66
2023/02/18 09:58:21;;;;;;;78.32;58.08;;;461.50;1536.00;;;;;;5053558;28;20032;-65
2023/02/18 10:01:02;;;;;;;68.47;51.30;;;461.40;1561.60;;;;;;5053201;28;20127;-65
2023/02/18 10:03:28;;;;;;;74.57;51.45;;;461.50;1587.20;;;;;;5053409;28;20025;-66
2023/02/18 10:05:56;;;;;;;81.85;58.63;;;461.00;1612.80;;;;;;5053375;28;20378;-62
2023/02/18 10:08:27;;;;;;;109.85;74.25;;;461.10;1587.20;;;;;;5046765;28;20075;-65
2023/02/18 10:10:53;;;;;;;91.50;62.38;;;460.90;1587.20;;;;;;5040293;28;20083;-67
2023/02/18 10:13:22;;;;;;;69.57;48.00;;;436.00;1561.60;;;;;;5026736;28;20029;-67
2023/02/18 10:15:49;;;;;;;79.00;54.63;;;436.10;1536.00;;;;;;5033225;28;20034;-68
2023/02/18 10:18:32;;;;;;;83.07;55.97;;;460.80;1561.60;;;;;;5033216;28;20041;-67
2023/02/18 10:21:10;;;;;;;79.32;53.20;;;435.90;1536.00;;;;;;5033165;28;20064;-67
2023/02/18 10:23:39;;;;;;;79.63;55.78;;;436.10;1561.60;;;;;;5033227;28;20021;-66
2023/02/18 10:26:09;;;;;;;113.93;85.35;;;436.00;1561.60;;;;;;5033099;28;20076;-66
2023/02/18 10:28:36;;;;;;;93.40;70.72;;;436.10;1561.60;;;;;;5033230;28;20364;-67
2023/02/18 10:31:09;;;;;;;96.22;70.50;;;460.80;1612.80;;;;;;5033190;28;20349;-66
2023/02/18 10:33:59;;;;;;;94.78;66.35;;;461.00;1587.20;;;;;;5033192;28;20533;-63
2023/02/18 10:36:27;;;;;;;89.63;63.45;;;461.10;1612.80;;;;;;5031852;28;20037;-65
2023/02/18 10:39:19;;;;;;;158.63;107.32;;;461.00;1638.40;;;;;;5032830;28;20017;-67
2023/02/18 10:41:54;;;;;;;101.13;68.40;;;460.90;1587.20;;;;;;5032970;28;20026;-67
2023/02/18 10:45:08;;;;;;;98.18;65.15;;;460.90;1561.60;;;;;;5032583;28;20574;-65
2023/02/18 10:47:41;;;;;;;65.70;48.80;;;461.00;1536.00;;;;;;4971827;28;20038;-68
2023/02/18 10:50:28;;;;;;;73.90;51.30;;;460.90;1536.00;;;;;;4971609;28;20110;-66
2023/02/18 10:52:56;;;;;;;59.20;44.08;;;461.00;1561.60;;;;;;4971848;28;20027;-66
2023/02/18 10:55:35;;;;;;;52.00;43.13;;;461.00;1561.60;;;;;;4971895;28;20054;-65
2023/02/18 10:58:00;;;;;;;62.15;45.97;;;460.90;1561.60;;;;;;4971849;28;20039;-65
2023/02/18 11:00:26;;;;;;;81.78;62.85;;;460.90;1561.60;;;;;;4971395;28;20041;-63
2023/02/18 11:03:19;;;;;;;81.40;65.82;;;436.10;1561.60;;;;;;4971670;28;20026;-65
2023/02/18 11:05:46;;;;;;;123.97;92.57;;;435.80;1587.20;;;;;;4971629;28;20030;-66
2023/02/18 11:08:25;;;;;;;140.60;100.28;;;435.50;1638.40;;;;;;4971521;28;20022;-63
2023/02/18 11:10:51;;;;;;;135.30;91.07;;;435.50;1638.40;;;;;;4971283;28;20038;-67
2023/02/18 11:13:27;;;;;;;144.35;100.72;;;435.60;1612.80;;;;;;4971197;28;20037;-67
2023/02/18 11:15:59;;;;;;;95.20;66.88;;;435.40;1638.40;;;;;;4971554;28;20046;-67
2023/02/18 11:18:25;;;;;;;75.03;49.70;;;435.60;1638.40;;;;;;4971582;28;20043;-66
2023/02/18 11:20:59;;;;;;;68.05;46.95;;;435.80;1612.80;;;;;;4970823;28;20117;-66
2023/02/18 11:23:25;;;;;;;39.60;30.10;;;435.90;1612.80;;;;;;4996467;28;20095;-66
2023/02/18 11:26:23;;;;;;;44.53;29.40;;;435.80;1587.20;;;;;;5032442;28;20029;-66
2023/02/18 11:28:51;;;;;;;70.55;48.95;;;436.10;1536.00;;;;;;5031556;28;20041;-66
2023/02/18 11:31:23;;;;;;;108.45;74.72;;;461.00;1612.80;;;;;;5014252;28;20427;-66
2023/02/18 11:34:01;;;;;;;126.43;80.83;;;461.00;1510.40;;;;;;5032104;28;20021;-66
2023/02/18 11:36:37;;;;;;;43.65;31.10;;;461.20;1510.40;;;;;;5031561;28;20535;-65
2023/02/18 11:39:23;;;;;;;48.50;35.55;;;461.30;1484.80;;;;;;5031891;28;20033;-65
2023/02/18 11:41:55;;;;;;;40.22;23.73;;;461.20;1510.40;;;;;;5031473;28;20155;-65
2023/02/18 11:44:34;;;;;;;55.08;32.03;;;461.10;1510.40;;;;;;5031652;28;20053;-66
2023/02/18 11:47:18;;;;;;;48.15;30.70;;;461.10;1536.00;;;;;;5031274;28;20025;-66
2023/02/18 11:50:02;;;;;;;35.67;24.17;;;461.00;1587.20;;;;;;5036549;28;20025;-65
2023/02/18 11:52:41;;;;;;;38.03;25.02;;;461.10;1587.20;;;;;;5038127;28;20055;-65
2023/02/18 11:55:14;;;;;;;33.22;21.98;;;461.10;1587.20;;;;;;5040309;28;20029;-64
2023/02/18 11:57:45;;;;;;;26.42;21.10;;;461.00;1561.60;;;;;;5039131;28;20017;-62
2023/02/18 12:00:35;;;;;;;31.98;21.85;;;461.10;1561.60;;;;;;5039105;28;20102;-68
2023/02/18 12:03:06;;;;;;;35.42;22.92;;;461.00;1561.60;;;;;;5036777;28;20061;-67
2023/02/18 12:05:33;;;;;;;21.58;16.52;;;460.90;1587.20;;;;;;5038718;28;20491;-68
2023/02/18 12:08:37;;;;;;;35.55;19.20;;;460.90;1561.60;;;;;;5038807;28;20026;-66